Time;durP1;ratioP1;P1;durP2;ratioP2;P2;SDS_P1;SDS_P2;PMS_P1;PMS_P2;Temp;Humidity;BMP_temperature;BMP_pressure;BME280_temperature;BME280_humidity;BME280_pressure;Samples;Min_cycle;Max_cycle;Signal;HPM_P1;HPM_P2
2021/03/15 00:01:41;;;;;;;44.30;34.48;;;;;;;4.93;79.03;99553.77;1782052;80;21072;-54
2021/03/15 00:04:23;;;;;;;42.15;32.03;;;;;;;4.93;79.04;99558.69;1745727;81;20988;-54
2021/03/15 00:06:51;;;;;;;49.18;32.90;;;;;;;4.93;79.03;99549.69;1745294;82;22578;-54
2021/03/15 00:09:27;;;;;;;46.85;32.88;;;;;;;4.94;79.00;99558.95;1782899;80;21021;-54
2021/03/15 00:11:54;;;;;;;45.30;32.98;;;;;;;4.93;78.95;99560.57;1783055;80;20978;-54
2021/03/15 00:14:24;;;;;;;45.25;33.23;;;;;;;4.93;78.99;99557.85;1745945;82;21066;-54
2021/03/15 00:16:56;;;;;;;51.20;35.00;;;;;;;4.91;79.03;99568.99;1782696;80;21046;-55
2021/03/15 00:19:26;;;;;;;47.95;35.23;;;;;;;4.92;79.04;99567.11;1783174;80;21371;-54
2021/03/15 00:21:55;;;;;;;44.33;33.30;;;;;;;4.92;79.06;99554.87;1783057;80;21104;-54
2021/03/15 00:24:39;;;;;;;45.33;32.95;;;;;;;4.95;79.06;99559.79;1745998;82;21042;-54
2021/03/15 00:27:07;;;;;;;46.77;34.30;;;;;;;4.96;79.00;99550.56;1783340;80;21096;-54
2021/03/15 00:29:45;;;;;;;48.05;35.78;;;;;;;4.99;78.86;99562.28;1746025;82;21181;-54
2021/03/15 00:32:14;;;;;;;45.73;31.23;;;;;;;4.95;78.81;99556.52;1782768;80;22354;-54
2021/03/15 00:34:44;;;;;;;44.58;31.57;;;;;;;4.93;78.85;99566.85;1745813;82;21070;-54
2021/03/15 00:37:16;;;;;;;43.48;32.10;;;;;;;4.91;78.95;99560.02;1783391;80;21057;-54
2021/03/15 00:39:51;;;;;;;46.02;32.48;;;;;;;4.89;79.00;99556.72;1744204;82;21073;-54
2021/03/15 00:42:21;;;;;;;47.08;36.28;;;;;;;4.90;79.04;99560.57;1783032;80;21057;-54
2021/03/15 00:44:52;;;;;;;50.70;36.45;;;;;;;4.92;79.02;99564.39;1751089;80;21471;-54
2021/03/15 00:47:25;;;;;;;47.80;34.75;;;;;;;4.94;78.89;99567.66;1782911;80;21073;-53
2021/03/15 00:49:59;;;;;;;47.20;36.35;;;;;;;4.96;78.84;99566.89;1745896;82;21054;-54
2021/03/15 00:52:29;;;;;;;47.25;33.85;;;;;;;4.91;78.83;99564.91;1752503;80;21030;-54
2021/03/15 00:54:57;;;;;;;48.55;35.25;;;;;;;4.91;78.92;99566.83;1783082;80;21038;-54
2021/03/15 00:57:28;;;;;;;43.65;32.08;;;;;;;4.90;78.94;99566.53;1745605;82;21220;-54
2021/03/15 00:59:56;;;;;;;46.55;34.10;;;;;;;4.89;78.91;99563.52;1782615;80;21057;-54
2021/03/15 01:02:25;;;;;;;48.25;33.73;;;;;;;4.88;78.98;99561.90;1783044;80;21030;-54
2021/03/15 01:04:57;;;;;;;47.73;36.28;;;;;;;4.90;78.82;99552.93;1745286;82;20987;-54
2021/03/15 01:07:27;;;;;;;46.42;35.55;;;;;;;4.89;78.77;99548.55;1782753;80;21080;-54
2021/03/15 01:09:55;;;;;;;51.77;36.10;;;;;;;4.83;78.83;99546.35;1782585;80;21206;-54
2021/03/15 01:12:33;;;;;;;49.10;35.30;;;;;;;4.79;78.92;99546.03;1780591;80;22161;-54
2021/03/15 01:15:10;;;;;;;50.63;35.08;;;;;;;4.75;79.07;99545.45;1745222;82;21050;-54
2021/03/15 01:17:42;;;;;;;50.23;35.38;;;;;;;4.71;79.19;99537.52;1782455;80;21600;-54
2021/03/15 01:20:17;;;;;;;51.05;37.98;;;;;;;4.70;79.36;99543.50;1745335;82;21069;-54
2021/03/15 01:22:56;;;;;;;48.85;34.48;;;;;;;4.68;79.45;99542.92;1783196;80;21386;-53
2021/03/15 01:25:33;;;;;;;57.05;37.67;;;;;;;4.65;79.54;99527.92;1781753;80;21706;-54
2021/03/15 01:28:05;;;;;;;47.95;34.88;;;;;;;4.63;79.73;99525.17;1745002;82;21090;-54
2021/03/15 01:30:38;;;;;;;50.38;36.08;;;;;;;4.59;79.89;99516.72;1780162;80;21077;-53
2021/03/15 01:33:15;;;;;;;46.37;34.53;;;;;;;4.59;80.03;99513.19;1744933;82;21664;-54
2021/03/15 01:35:45;;;;;;;51.28;36.20;;;;;;;4.56;80.15;99506.88;1782488;80;21370;-54
2021/03/15 01:38:14;;;;;;;59.05;37.85;;;;;;;4.54;80.25;99509.05;1745114;82;21358;-54
2021/03/15 01:40:44;;;;;;;52.17;38.13;;;;;;;4.54;80.42;99513.13;1782562;80;21045;-54
2021/03/15 01:43:21;;;;;;;50.30;35.17;;;;;;;4.55;80.49;99521.02;1745056;82;21077;-54
2021/03/15 01:45:58;;;;;;;45.40;32.95;;;;;;;4.56;80.52;99521.31;1782667;80;21652;-54
2021/03/15 01:48:25;;;;;;;54.15;38.85;;;;;;;4.56;80.61;99526.76;1746744;81;21297;-54
2021/03/15 01:50:58;;;;;;;56.15;36.75;;;;;;;4.56;80.62;99529.99;1720800;83;21063;-54
2021/03/15 01:53:26;;;;;;;49.85;36.65;;;;;;;4.54;80.65;99540.31;1720548;83;20995;-54
2021/03/15 01:56:01;;;;;;;55.40;37.63;;;;;;;4.52;80.76;99543.30;1750666;81;21054;-54
2021/03/15 01:58:40;;;;;;;56.13;44.47;;;;;;;4.59;80.83;99553.98;1786090;78;28513;-54
2021/03/15 02:01:08;;;;;;;58.70;41.70;;;;;;;4.61;80.65;99545.02;1776331;80;21077;-54
2021/03/15 02:03:38;;;;;;;54.03;40.00;;;;;;;4.64;80.64;99544.50;1753199;79;22411;-54
2021/03/15 02:06:10;;;;;;;55.95;38.58;;;;;;;4.66;80.57;99538.28;1745374;82;21005;-54
2021/03/15 02:08:42;;;;;;;52.80;38.17;;;;;;;4.67;80.52;99546.70;1745392;82;21033;-54
2021/03/15 02:11:43;;;;;;;58.00;38.90;;;;;;;4.67;80.57;99541.27;1744969;82;21005;-54
2021/03/15 02:14:33;;;;;;;55.45;39.63;;;;;;;4.69;80.57;99545.93;1680409;84;21602;-54
2021/03/15 02:17:30;;;;;;;50.05;35.30;;;;;;;4.73;80.32;99544.34;1845341;76;22786;-54
2021/03/15 02:20:15;;;;;;;54.38;41.23;;;;;;;4.65;80.41;99544.80;1815363;78;21057;-54
2021/03/15 02:22:57;;;;;;;51.37;36.85;;;;;;;4.64;80.47;99546.70;1815337;79;21373;-54
2021/03/15 02:26:10;;;;;;;53.85;39.83;;;;;;;4.66;80.47;99545.90;1814557;79;21049;-54
2021/03/15 02:29:15;;;;;;;58.65;41.02;;;;;;;4.65;80.54;99557.03;1814181;79;21659;-54
2021/03/15 02:32:35;;;;;;;56.60;39.20;;;;;;;4.64;80.46;99546.70;1813026;79;21069;-54
2021/03/15 02:35:17;;;;;;;64.87;42.93;;;;;;;4.63;80.61;99552.37;1815224;78;21616;-54
2021/03/15 02:37:57;;;;;;;60.58;43.73;;;;;;;4.61;80.67;99549.09;1814613;79;21993;-54
2021/03/15 02:40:56;;;;;;;60.25;44.85;;;;;;;4.63;80.76;99552.37;1812985;79;21037;-54
2021/03/15 02:43:45;;;;;;;63.95;43.87;;;;;;;4.65;80.78;99544.25;1815237;78;20977;-54
2021/03/15 02:46:22;;;;;;;64.80;42.30;;;;;;;4.66;80.80;99547.81;1815000;78;21619;-54
2021/03/15 02:48:54;;;;;;;61.68;42.62;;;;;;;4.62;80.86;99539.33;1815196;78;21093;-54
2021/03/15 02:51:27;;;;;;;66.15;44.90;;;;;;;4.63;80.83;99523.81;1815360;79;21222;-54
2021/03/15 02:54:02;;;;;;;65.85;44.05;;;;;;;4.62;80.94;99528.44;1805493;78;21594;-54
2021/03/15 02:56:43;;;;;;;66.10;44.23;;;;;;;4.66;81.00;99524.69;1757489;81;21087;-53
2021/03/15 02:59:14;;;;;;;65.52;41.68;;;;;;;4.65;80.89;99530.65;1733667;82;21051;-54
2021/03/15 03:01:45;;;;;;;56.20;37.42;;;;;;;4.61;80.91;99519.18;1733698;82;21579;-53
2021/03/15 03:06:56;;;;;;;64.17;43.63;;;;;;;4.59;81.17;99510.47;1965174;72;22657;-54
2021/03/15 03:09:28;;;;;;;72.42;45.45;;;;;;;4.50;81.31;99510.92;1933423;74;20994;-54
2021/03/15 03:11:56;;;;;;;70.03;44.50;;;;;;;4.44;81.46;99511.92;1932889;74;21266;-54
2021/03/15 03:14:28;;;;;;;65.90;41.85;;;;;;;4.43;81.69;99521.70;1933243;74;20971;-54
2021/03/15 03:16:57;;;;;;;69.60;43.05;;;;;;;4.43;81.81;99518.46;1933146;74;21038;-55
2021/03/15 03:19:26;;;;;;;72.50;46.25;;;;;;;4.43;81.99;99513.53;1898425;74;20986;-54
2021/03/15 03:21:57;;;;;;;75.08;45.75;;;;;;;4.41;82.13;99511.08;1933576;74;20951;-55
2021/03/15 03:24:28;;;;;;;74.15;47.10;;;;;;;4.40;82.25;99518.13;1898176;74;21638;-54
2021/03/15 03:26:58;;;;;;;66.42;44.53;;;;;;;4.40;82.33;99513.53;1933181;74;20939;-54
2021/03/15 03:29:28;;;;;;;78.25;51.40;;;;;;;4.41;82.47;99515.16;1932762;74;21017;-55
2021/03/15 03:32:07;;;;;;;78.45;49.45;;;;;;;4.47;82.61;99520.11;1774377;79;21825;-54
2021/03/15 03:34:35;;;;;;;79.47;50.60;;;;;;;4.40;82.69;99531.73;1747334;82;21065;-54
2021/03/15 03:37:08;;;;;;;78.62;49.55;;;;;;;4.38;82.75;99534.70;1746976;81;21041;-54
2021/03/15 03:39:38;;;;;;;82.57;48.95;;;;;;;4.35;82.89;99542.02;1747128;81;21053;-54
2021/03/15 03:42:08;;;;;;;85.65;50.40;;;;;;;4.35;83.07;99542.02;1746991;82;20995;-54
2021/03/15 03:44:36;;;;;;;81.20;54.30;;;;;;;4.33;83.24;99546.89;1746872;82;21022;-54
2021/03/15 03:47:09;;;;;;;75.72;49.63;;;;;;;4.33;83.40;99536.83;1746864;82;21038;-54
2021/03/15 03:49:45;;;;;;;80.92;50.83;;;;;;;4.36;83.55;99537.38;1746930;81;21488;-54
2021/03/15 03:52:12;;;;;;;73.75;47.27;;;;;;;4.38;83.60;99542.86;1746488;81;21025;-54
2021/03/15 03:54:45;;;;;;;78.62;50.65;;;;;;;4.38;83.53;99554.28;1728150;82;21066;-54
2021/03/15 03:57:21;;;;;;;;;;;;;;;4.37;83.65;99546.64;1719841;82;21738;-55
2021/03/15 03:59:51;;;;;;;75.22;47.53;;;;;;;4.36;83.71;99557.26;1716605;82;20242;-55
2021/03/15 04:02:24;;;;;;;86.32;53.05;;;;;;;4.35;83.86;99565.13;1717165;83;21213;-54
2021/03/15 04:05:08;;;;;;;87.65;51.65;;;;;;;4.33;83.93;99565.92;1717019;83;21105;-54
2021/03/15 04:07:43;;;;;;;84.20;51.55;;;;;;;4.32;84.05;99565.08;1716894;83;21220;-54
2021/03/15 04:10:12;;;;;;;91.45;55.70;;;;;;;4.33;84.20;99568.64;1717081;83;21049;-54
2021/03/15 04:12:48;;;;;;;82.92;48.60;;;;;;;4.37;84.23;99568.94;1717496;83;21014;-55
2021/03/15 04:15:18;;;;;;;82.53;49.40;;;;;;;4.39;84.21;99571.70;1713937;82;21209;-56
2021/03/15 04:20:35;;;;;;;82.00;50.73;;;;;;;4.44;84.34;99570.94;1845381;76;22721;-54
2021/03/15 04:23:07;;;;;;;88.97;52.62;;;;;;;4.40;84.28;99576.07;1815180;79;21021;-54
2021/03/15 04:25:40;;;;;;;81.08;50.40;;;;;;;4.42;84.28;99571.73;1814697;79;21186;-54
2021/03/15 04:28:12;;;;;;;89.05;50.98;;;;;;;4.44;84.25;99575.82;1783519;79;20990;-54
2021/03/15 04:30:41;;;;;;;80.83;47.13;;;;;;;4.45;84.19;99578.84;1815157;79;22014;-54
2021/03/15 04:33:13;;;;;;;90.42;55.08;;;;;;;4.45;84.19;99579.38;1815318;78;21013;-54
2021/03/15 04:35:43;;;;;;;82.47;51.15;;;;;;;4.46;84.14;99585.92;1815176;79;21595;-54
2021/03/15 04:38:13;;;;;;;87.60;53.58;;;;;;;4.44;84.16;99586.70;1814832;79;21442;-54
2021/03/15 04:40:42;;;;;;;91.30;54.05;;;;;;;4.43;84.23;99589.16;1815423;78;21018;-54
2021/03/15 04:43:12;;;;;;;94.50;55.73;;;;;;;4.42;84.28;99588.86;1784308;79;21037;-54
2021/03/15 04:45:47;;;;;;;88.62;52.35;;;;;;;4.40;84.36;99595.63;1814830;79;21001;-54
2021/03/15 04:48:24;;;;;;;96.08;55.45;;;;;;;4.40;84.47;99593.74;1815309;78;21821;-54
2021/03/15 04:50:59;;;;;;;92.12;56.45;;;;;;;4.43;84.61;99600.03;1815452;78;22271;-54
2021/03/15 04:53:33;;;;;;;93.42;54.67;;;;;;;4.46;84.54;99600.88;1809664;78;21076;-54
2021/03/15 04:56:07;;;;;;;95.22;54.42;;;;;;;4.47;84.49;99606.61;1783254;80;21014;-54
2021/03/15 04:58:38;;;;;;;91.15;51.55;;;;;;;4.49;84.46;99605.00;1783095;79;21615;-54
2021/03/15 05:01:05;;;;;;;96.35;57.67;;;;;;;4.53;84.44;99612.09;1783112;80;22081;-54
2021/03/15 05:03:38;;;;;;;102.60;57.08;;;;;;;4.57;84.38;99614.59;1783113;80;21252;-54
2021/03/15 05:06:12;;;;;;;100.60;59.77;;;;;;;4.60;84.29;99614.08;1782906;80;21053;-54
2021/03/15 05:08:47;;;;;;;100.80;57.62;;;;;;;4.63;84.33;99613.05;1781349;80;21017;-54
2021/03/15 05:11:17;;;;;;;105.22;58.45;;;;;;;4.69;84.32;99619.37;1782526;80;21061;-54
2021/03/15 05:13:49;;;;;;;104.00;57.35;;;;;;;4.73;84.20;99609.64;1783051;80;21033;-54
2021/03/15 05:16:18;;;;;;;88.50;51.37;;;;;;;4.77;84.10;99613.49;1782860;80;21045;-54
2021/03/15 05:18:57;;;;;;;81.17;49.70;;;;;;;4.83;83.96;99613.83;1785638;79;21072;-54
2021/03/15 05:21:18;;;;;;;90.67;53.78;;;;;;;4.88;83.75;99614.96;1796326;79;21033;-54
2021/03/15 05:23:51;;;;;;;87.78;53.75;;;;;;;4.87;83.55;99616.84;1795540;79;22201;-54
2021/03/15 05:26:22;;;;;;;94.85;58.33;;;;;;;4.90;83.75;99617.72;1797939;79;21616;-54
2021/03/15 05:28:57;;;;;;;93.80;57.35;;;;;;;4.93;83.59;99603.59;1797751;79;21655;-54
2021/03/15 05:31:26;;;;;;;94.67;56.77;;;;;;;5.03;83.57;99608.33;1797132;79;21028;-54
2021/03/15 05:33:54;;;;;;;92.47;54.42;;;;;;;5.10;83.28;99610.30;1796851;79;20989;-54
2021/03/15 05:36:21;;;;;;;102.72;61.02;;;;;;;5.15;83.16;99620.41;1796410;79;21028;-54
2021/03/15 05:38:54;;;;;;;90.83;53.68;;;;;;;5.17;83.07;99617.72;1745532;79;22284;-54
2021/03/15 05:41:42;;;;;;;95.32;56.13;;;;;;;5.19;82.84;99622.91;1796471;79;21388;-54
2021/03/15 05:44:53;;;;;;;95.60;53.58;;;;;;;5.25;82.64;99627.86;1834343;78;22228;-54
2021/03/15 05:47:46;;;;;;;88.00;54.05;;;;;;;5.18;82.57;99621.25;1806642;79;21034;-54
2021/03/15 05:50:25;;;;;;;94.50;55.73;;;;;;;5.21;82.59;99624.00;1770500;79;21188;-54
2021/03/15 05:53:22;;;;;;;93.40;54.80;;;;;;;5.28;82.71;99625.42;1806115;79;21038;-54
2021/03/15 05:56:00;;;;;;;;;;;;;;;5.33;82.28;99622.77;1777322;80;21025;-55
2021/03/15 05:58:53;;;;;;;92.57;56.50;;;;;;;5.34;82.08;99629.02;1774938;80;20692;-55
2021/03/15 06:02:06;;;;;;;92.78;56.42;;;;;;;5.34;82.11;99626.30;1774479;80;21002;-55
2021/03/15 06:05:13;;;;;;;80.40;51.18;;;;;;;5.36;81.96;99633.69;1774847;80;22069;-55
2021/03/15 06:08:10;;;;;;;88.97;55.10;;;;;;;5.42;82.01;99646.27;1774885;80;20985;-55
2021/03/15 06:11:02;;;;;;;85.70;52.10;;;;;;;5.46;81.98;99643.83;1774884;80;22330;-55
2021/03/15 06:13:36;;;;;;;79.70;48.95;;;;;;;5.53;81.72;99648.55;1774833;80;21033;-55
2021/03/15 06:16:08;;;;;;;85.05;53.15;;;;;;;5.60;81.45;99642.86;1774404;80;21073;-55
2021/03/15 06:18:39;;;;;;;79.35;51.53;;;;;;;5.63;81.25;99643.70;1774978;80;21196;-55
2021/03/15 06:21:12;;;;;;;81.82;52.05;;;;;;;5.66;81.10;99646.75;1774692;80;21295;-55
2021/03/15 06:23:44;;;;;;;77.37;49.18;;;;;;;5.67;80.77;99649.76;1774650;80;21611;-55
2021/03/15 06:26:14;;;;;;;105.87;56.37;;;;;;;5.66;80.80;99647.30;1774410;80;21057;-55
2021/03/15 06:28:42;;;;;;;85.32;54.20;;;;;;;5.68;80.62;99649.20;1774847;80;21045;-55
2021/03/15 06:31:15;;;;;;;90.45;55.75;;;;;;;5.72;80.58;99653.06;1774271;80;21191;-55
2021/03/15 06:33:47;;;;;;;82.37;51.50;;;;;;;5.75;80.43;99649.81;1774663;80;21674;-55
2021/03/15 06:36:20;;;;;;;117.00;58.13;;;;;;;5.77;80.25;99643.55;1774650;80;21045;-55
2021/03/15 06:38:56;;;;;;;84.50;51.95;;;;;;;5.78;80.22;99641.11;1774701;80;21026;-55
2021/03/15 06:41:29;;;;;;;91.10;54.35;;;;;;;5.84;80.02;99635.97;1774403;80;21121;-55
2021/03/15 06:43:59;;;;;;;84.75;50.98;;;;;;;5.92;80.12;99636.59;1779034;80;21193;-55
2021/03/15 06:46:32;;;;;;;86.97;53.30;;;;;;;5.98;79.84;99632.84;1780932;80;21045;-54
2021/03/15 06:49:04;;;;;;;87.60;53.87;;;;;;;6.03;79.64;99632.33;1780794;80;21029;-55
2021/03/15 06:51:33;;;;;;;99.62;57.70;;;;;;;6.06;79.36;99630.98;1780566;80;21614;-55
2021/03/15 06:54:01;;;;;;;100.62;61.80;;;;;;;6.10;79.21;99629.39;1748683;80;21139;-55
2021/03/15 06:56:30;;;;;;;103.85;60.03;;;;;;;6.16;79.04;99641.11;1773361;80;22066;-55
2021/03/15 06:58:59;;;;;;;100.12;62.60;;;;;;;6.17;78.86;99636.78;1731345;82;21086;-55
2021/03/15 07:01:32;;;;;;;98.58;62.33;;;;;;;6.17;78.58;99640.88;1729212;82;21654;-55
2021/03/15 07:04:08;;;;;;;98.37;61.35;;;;;;;6.19;78.56;99638.70;1776501;79;21047;-55
2021/03/15 07:06:43;;;;;;;97.90;61.25;;;;;;;6.24;78.48;99643.35;1779458;79;20994;-55
2021/03/15 07:09:15;;;;;;;101.95;63.40;;;;;;;6.32;78.43;99646.14;1775229;79;21577;-55
2021/03/15 07:11:46;;;;;;;104.85;60.70;;;;;;;6.38;78.04;99639.62;1774803;79;21094;-54
2021/03/15 07:14:27;;;;;;;102.40;64.05;;;;;;;6.47;77.71;99639.38;1722059;80;21533;-55
2021/03/15 07:16:59;;;;;;;102.92;63.42;;;;;;;6.51;77.45;99639.12;1779394;80;21060;-55
2021/03/15 07:19:30;;;;;;;108.10;66.22;;;;;;;6.57;77.29;99640.81;1764186;80;21057;-55
2021/03/15 07:22:02;;;;;;;93.82;60.92;;;;;;;6.62;77.39;99637.84;1759644;79;22288;-55
2021/03/15 07:24:30;;;;;;;94.00;55.90;;;;;;;6.69;77.17;99632.95;1718205;82;21096;-56
2021/03/15 07:27:02;;;;;;;91.55;57.85;;;;;;;6.70;76.77;99634.57;1772401;80;21132;-57
2021/03/15 07:29:36;;;;;;;89.05;56.02;;;;;;;6.68;76.67;99630.74;1801138;78;22082;-55
2021/03/15 07:32:06;;;;;;;90.38;57.25;;;;;;;6.65;76.76;99617.64;1775493;80;21050;-55
2021/03/15 07:34:36;;;;;;;81.40;52.03;;;;;;;6.67;76.87;99625.55;1755682;80;21261;-54
2021/03/15 07:37:09;;;;;;;87.45;56.13;;;;;;;6.68;76.66;99623.11;1763050;80;21115;-54
2021/03/15 07:39:39;;;;;;;94.85;55.00;;;;;;;6.62;76.58;99622.83;1726525;81;21042;-54
2021/03/15 07:42:08;;;;;;;80.38;51.65;;;;;;;6.63;76.63;99632.11;1695804;81;21076;-54
2021/03/15 07:44:43;;;;;;;87.37;54.00;;;;;;;6.58;76.30;99631.52;1750013;81;21065;-54
2021/03/15 07:47:14;;;;;;;84.80;55.48;;;;;;;6.49;76.65;99624.95;1770361;81;21356;-54
2021/03/15 07:49:48;;;;;;;96.00;57.48;;;;;;;6.52;76.87;99635.33;1694314;83;22321;-53
2021/03/15 07:52:13;;;;;;;101.82;61.50;;;;;;;6.52;76.67;99635.33;1719193;82;21053;-54
2021/03/15 07:54:44;;;;;;;112.37;60.63;;;;;;;6.51;76.85;99635.03;1709164;83;21206;-54
2021/03/15 08:00:03;;;;;;;89.80;56.40;;;;;;;6.64;76.48;99640.55;1841264;76;22770;-54
2021/03/15 08:02:36;;;;;;;101.92;60.58;;;;;;;6.47;76.31;99642.11;1810006;78;21045;-53
2021/03/15 08:05:13;;;;;;;97.27;59.77;;;;;;;6.33;76.64;99630.88;1810762;78;21707;-55
2021/03/15 08:07:42;;;;;;;92.75;58.13;;;;;;;6.29;77.02;99635.73;1745889;80;21128;-55
2021/03/15 08:10:14;;;;;;;95.62;58.02;;;;;;;6.36;77.35;99633.63;1744808;79;21053;-56
2021/03/15 08:12:45;;;;;;;92.17;53.87;;;;;;;6.46;77.30;99628.73;1749254;79;21113;-54
2021/03/15 08:15:21;;;;;;;100.70;55.15;;;;;;;6.53;77.08;99627.95;1750276;79;21812;-54
2021/03/15 08:17:56;;;;;;;91.97;56.58;;;;;;;6.59;76.82;99630.99;1757750;79;21039;-55
2021/03/15 08:20:24;;;;;;;94.70;57.80;;;;;;;6.66;76.64;99624.75;1754054;79;21104;-55
2021/03/15 08:22:58;;;;;;;96.05;59.60;;;;;;;6.73;76.37;99624.48;1742347;81;21200;-54
2021/03/15 08:25:27;;;;;;;92.90;54.38;;;;;;;6.75;76.06;99630.51;1753052;79;21359;-54
2021/03/15 08:27:57;;;;;;;99.87;58.70;;;;;;;6.70;75.92;99630.48;1749139;81;21107;-54
2021/03/15 08:30:30;;;;;;;106.45;64.45;;;;;;;6.58;76.10;99635.61;1750944;79;21192;-54
2021/03/15 08:32:59;;;;;;;106.35;63.70;;;;;;;6.56;76.46;99627.44;1749880;79;21683;-55
2021/03/15 08:35:30;;;;;;;113.75;66.47;;;;;;;6.53;76.47;99628.79;1715104;79;21001;-55
2021/03/15 08:38:05;;;;;;;123.55;64.85;;;;;;;6.54;76.79;99629.08;1754953;79;22489;-55
2021/03/15 08:40:47;;;;;;;120.22;65.62;;;;;;;6.60;76.75;99638.62;1811432;77;21040;-55
2021/03/15 08:43:26;;;;;;;119.55;61.75;;;;;;;6.61;76.53;99638.36;1743899;80;21240;-55
2021/03/15 08:45:58;;;;;;;127.02;70.47;;;;;;;6.64;76.65;99635.64;1746788;79;21388;-56
2021/03/15 08:48:37;;;;;;;133.00;70.22;;;;;;;6.71;76.57;99634.86;1744292;80;21011;-55
2021/03/15 08:51:15;;;;;;;132.27;71.22;;;;;;;6.74;76.46;99635.68;1757506;79;21427;-55
2021/03/15 08:53:49;;;;;;;145.12;76.42;;;;;;;6.76;76.36;99644.44;1735860;79;21030;-54
2021/03/15 08:56:23;;;;;;;165.45;84.28;;;;;;;6.69;76.24;99643.31;1727427;81;21197;-55
2021/03/15 08:59:00;;;;;;;142.55;76.57;;;;;;;6.67;76.42;99646.02;1773987;79;21608;-54
2021/03/15 09:01:57;;;;;;;139.55;76.22;;;;;;;6.67;76.64;99641.41;1773361;79;21544;-54
2021/03/15 09:04:48;;;;;;;127.87;66.42;;;;;;;6.72;76.70;99643.33;1774644;79;20986;-54
2021/03/15 09:07:39;;;;;;;126.60;66.15;;;;;;;6.78;76.70;99643.61;1777597;79;21002;-53
2021/03/15 09:10:31;;;;;;;130.00;68.42;;;;;;;6.77;76.47;99650.16;1772746;79;22261;-55
2021/03/15 09:13:20;;;;;;;132.05;69.35;;;;;;;6.67;76.57;99648.75;1776884;79;21046;-54
2021/03/15 09:18:48;;;;;;;121.70;63.95;;;;;;;6.70;77.26;99643.59;1935765;72;22650;-54
2021/03/15 09:21:30;;;;;;;140.73;66.75;;;;;;;6.71;77.13;99630.77;1903072;73;21146;-54
2021/03/15 09:24:04;;;;;;;132.97;70.28;;;;;;;6.74;77.12;99636.52;1898391;74;21370;-55
2021/03/15 09:26:37;;;;;;;128.10;67.70;;;;;;;6.71;76.81;99633.48;1883560;74;21032;-54
2021/03/15 09:29:09;;;;;;;123.38;69.72;;;;;;;6.65;76.92;99631.84;1911166;73;20954;-54
2021/03/15 09:31:38;;;;;;;116.20;61.63;;;;;;;6.67;77.07;99633.74;1898893;73;21992;-55
2021/03/15 09:34:08;;;;;;;116.88;67.85;;;;;;;6.72;77.17;99630.48;1824888;75;21675;-55
2021/03/15 09:36:39;;;;;;;111.57;63.50;;;;;;;6.78;77.08;99633.25;1864011;75;21400;-54
2021/03/15 09:39:07;;;;;;;128.75;68.33;;;;;;;6.82;76.94;99635.17;1838551;76;20980;-54
2021/03/15 09:41:38;;;;;;;117.33;62.43;;;;;;;6.78;76.68;99639.52;1833305;75;20981;-56
2021/03/15 09:44:06;;;;;;;113.30;63.65;;;;;;;6.70;76.78;99635.41;1824699;76;20931;-56
2021/03/15 09:46:35;;;;;;;117.93;66.00;;;;;;;6.64;77.07;99642.47;1799422;76;20953;-53
2021/03/15 09:49:04;;;;;;;124.35;68.65;;;;;;;6.62;77.17;99639.20;1864404;75;21388;-55
2021/03/15 09:51:33;;;;;;;135.63;70.57;;;;;;;6.59;77.33;99632.36;1830553;76;21005;-54
2021/03/15 09:54:03;;;;;;;127.25;65.95;;;;;;;6.58;77.46;99635.61;1840790;75;21687;-55
2021/03/15 09:56:34;;;;;;;131.47;69.10;;;;;;;6.65;77.67;99640.84;1845040;76;21168;-56
2021/03/15 09:59:14;;;;;;;129.42;73.42;;;;;;;6.74;77.76;99630.22;1857155;76;20931;-56
2021/03/15 10:01:45;;;;;;;128.10;64.10;;;;;;;6.83;77.71;99633.25;1851449;76;21226;-56
2021/03/15 10:04:44;;;;;;;132.67;79.07;;;;;;;6.95;77.50;99628.39;1844174;75;38194;-55
2021/03/15 10:07:29;;;;;;;125.78;67.53;;;;;;;6.91;77.18;99634.91;1771527;79;21739;-57
2021/03/15 10:10:22;;;;;;;137.55;72.08;;;;;;;6.94;77.54;99628.09;1832302;76;23411;-55
2021/03/15 10:13:09;;;;;;;157.85;85.97;;;;;;;6.99;77.83;99635.48;1801998;78;21058;-55
2021/03/15 10:18:26;;;;;;;124.82;67.92;;;;;;;7.14;77.69;99639.62;1786200;79;22195;-56
2021/03/15 10:20:59;;;;;;;127.50;68.22;;;;;;;7.05;77.43;99638.52;1756695;80;21093;-53
2021/03/15 10:23:33;;;;;;;124.42;67.17;;;;;;;7.01;77.53;99644.23;1764721;79;22344;-55
2021/03/15 10:26:05;;;;;;;130.30;69.37;;;;;;;7.03;77.80;99644.25;1747072;80;21734;-56
2021/03/15 10:28:36;;;;;;;146.82;76.47;;;;;;;7.05;77.93;99645.34;1763084;79;21585;-55
2021/03/15 10:31:09;;;;;;;141.30;69.92;;;;;;;7.07;77.77;99648.61;1745965;80;20950;-55
2021/03/15 10:33:50;;;;;;;118.72;67.62;;;;;;;7.07;77.71;99645.88;1727056;81;20965;-56
2021/03/15 10:36:22;;;;;;;114.82;67.42;;;;;;;7.08;77.76;99651.07;1744319;79;22167;-56
2021/03/15 10:38:52;;;;;;;111.42;59.05;;;;;;;7.08;77.67;99644.80;1726097;81;21019;-56
2021/03/15 10:41:23;;;;;;;127.80;63.33;;;;;;;7.05;77.65;99647.52;1732710;81;21394;-56
2021/03/15 10:43:51;;;;;;;136.40;69.40;;;;;;;6.99;77.82;99640.94;1755150;80;20999;-55
2021/03/15 10:46:23;;;;;;;137.65;64.00;;;;;;;6.97;78.01;99638.48;1756020;80;20996;-57
2021/03/15 10:48:56;;;;;;;118.90;63.55;;;;;;;6.99;78.15;99637.69;1750339;80;21428;-56
2021/03/15 10:51:28;;;;;;;115.52;61.85;;;;;;;6.92;78.09;99629.73;1753938;80;21003;-56
2021/03/15 10:54:02;;;;;;;110.72;58.45;;;;;;;6.87;78.23;99628.37;1723459;81;21160;-54
2021/03/15 10:56:33;;;;;;;115.00;62.30;;;;;;;6.83;78.57;99618.23;1762790;79;21032;-55
2021/03/15 10:59:03;;;;;;;95.38;49.50;;;;;;;6.83;78.72;99621.81;1762365;79;20978;-55
2021/03/15 11:01:34;;;;;;;108.85;58.87;;;;;;;6.81;78.59;99627.25;1759661;79;21206;-56
2021/03/15 11:04:11;;;;;;;100.10;54.13;;;;;;;6.75;78.77;99625.05;1761102;79;20989;-56
2021/03/15 11:07:26;;;;;;;96.53;56.02;;;;;;;6.80;78.87;99625.08;1862384;75;22205;-54
2021/03/15 11:10:21;;;;;;;90.65;51.20;;;;;;;6.69;79.05;99616.02;1823373;76;21895;-54
2021/03/15 11:12:58;;;;;;;88.90;50.80;;;;;;;6.69;79.16;99609.76;1823317;76;21327;-54
2021/03/15 11:15:39;;;;;;;100.42;55.03;;;;;;;6.68;79.39;99614.93;1826316;76;21085;-55
2021/03/15 11:18:25;;;;;;;99.05;57.25;;;;;;;6.67;79.58;99609.19;1825570;77;21005;-56
2021/03/15 11:21:00;;;;;;;102.12;57.65;;;;;;;6.71;79.79;99601.55;1827062;76;22013;-56
2021/03/15 11:23:45;;;;;;;102.27;56.28;;;;;;;6.78;80.02;99601.31;1759538;79;20981;-56
2021/03/15 11:26:26;;;;;;;102.95;59.33;;;;;;;6.89;80.10;99600.80;1855521;75;22714;-56
2021/03/15 11:28:57;;;;;;;101.62;56.25;;;;;;;6.86;80.23;99604.89;1826761;76;20928;-55
2021/03/15 11:31:33;;;;;;;106.55;61.60;;;;;;;6.91;80.17;99598.06;1828873;77;21393;-56
2021/03/15 11:34:05;;;;;;;118.10;68.40;;;;;;;6.92;80.20;99591.52;1828284;76;20988;-55
2021/03/15 11:36:45;;;;;;;113.32;65.87;;;;;;;6.95;80.14;99593.45;1828997;77;21003;-56
2021/03/15 11:39:17;;;;;;;115.22;67.05;;;;;;;6.94;80.07;99596.70;1824516;77;20983;-56
2021/03/15 11:41:55;;;;;;;118.00;65.67;;;;;;;6.91;80.13;99598.06;1828365;76;21003;-56
2021/03/15 11:44:23;;;;;;;121.00;65.55;;;;;;;6.88;80.19;99593.14;1826496;77;21180;-55
2021/03/15 11:46:56;;;;;;;113.83;64.05;;;;;;;6.87;80.22;99596.98;1825629;77;21002;-56
2021/03/15 11:49:34;;;;;;;114.97;66.02;;;;;;;6.84;80.23;99602.14;1830775;77;20981;-56
2021/03/15 11:52:05;;;;;;;111.60;64.60;;;;;;;6.79;80.35;99598.86;1836847;77;20962;-57
2021/03/15 11:54:45;;;;;;;95.42;56.80;;;;;;;6.85;80.56;99596.97;1877685;74;22224;-54
2021/03/15 11:57:21;;;;;;;99.45;55.30;;;;;;;6.82;80.63;99607.88;1778954;80;21005;-55
2021/03/15 11:59:56;;;;;;;91.65;54.80;;;;;;;6.79;80.64;99596.13;1793698;78;22277;-54
2021/03/15 12:02:53;;;;;;;97.97;52.35;;;;;;;6.76;80.89;99596.68;1792493;78;21532;-56
2021/03/15 12:05:40;;;;;;;86.20;51.68;;;;;;;6.71;80.78;99600.19;1796645;78;21552;-56
2021/03/15 12:08:11;;;;;;;84.30;46.85;;;;;;;6.64;81.16;99601.53;1796894;78;21076;-56
2021/03/15 12:10:43;;;;;;;81.82;46.10;;;;;;;6.54;81.37;99604.52;1776767;79;20962;-56
2021/03/15 12:13:12;;;;;;;69.03;43.75;;;;;;;6.42;81.49;99603.06;1789333;78;22080;-56
2021/03/15 12:15:42;;;;;;;65.78;40.05;;;;;;;6.30;81.83;99603.30;1782376;79;21011;-56